sensor_id;sensor_type;location;lat;lon;timestamp;temperature;humidity
44509;DHT22;30214;52.246;14.408;2023-08-31T00:01:18;13.10;99.90
44509;DHT22;30214;52.246;14.408;2023-08-31T00:03:45;13.10;99.90
44509;DHT22;30214;52.246;14.408;2023-08-31T00:06:13;13.00;99.90
44509;DHT22;30214;52.246;14.408;2023-08-31T00:08:40;13.00;99.90
44509;DHT22;30214;52.246;14.408;2023-08-31T00:11:08;12.90;99.90
44509;DHT22;30214;52.246;14.408;2023-08-31T00:13:39;12.90;99.90
44509;DHT22;30214;52.246;14.408;2023-08-31T00:16:10;12.90;99.90
44509;DHT22;30214;52.246;14.408;2023-08-31T00:18:38;12.90;99.90
44509;DHT22;30214;52.246;14.408;2023-08-31T00:21:09;12.90;99.90
44509;DHT22;30214;52.246;14.408;2023-08-31T00:23:36;13.00;99.90
44509;DHT22;30214;52.246;14.408;2023-08-31T00:26:06;12.90;99.90
44509;DHT22;30214;52.246;14.408;2023-08-31T00:28:39;12.90;99.90
44509;DHT22;30214;52.246;14.408;2023-08-31T00:31:11;13.00;99.90
44509;DHT22;30214;52.246;14.408;2023-08-31T00:33:39;12.90;99.90
44509;DHT22;30214;52.246;14.408;2023-08-31T00:36:06;12.90;99.90
44509;DHT22;30214;52.246;14.408;2023-08-31T00:38:34;12.90;99.90
44509;DHT22;30214;52.246;14.408;2023-08-31T00:41:01;12.80;99.90
44509;DHT22;30214;52.246;14.408;2023-08-31T00:43:29;12.80;99.90
44509;DHT22;30214;52.246;14.408;2023-08-31T00:45:58;12.70;99.90
44509;DHT22;30214;52.246;14.408;2023-08-31T00:48:26;12.80;99.90
44509;DHT22;30214;52.246;14.408;2023-08-31T00:50:53;12.70;99.90
44509;DHT22;30214;52.246;14.408;2023-08-31T00:53:21;12.70;99.90
44509;DHT22;30214;52.246;14.408;2023-08-31T00:55:48;12.60;99.90
44509;DHT22;30214;52.246;14.408;2023-08-31T00:58:16;12.60;99.90
44509;DHT22;30214;52.246;14.408;2023-08-31T01:00:49;12.70;99.90
44509;DHT22;30214;52.246;14.408;2023-08-31T01:03:24;12.60;99.90
44509;DHT22;30214;52.246;14.408;2023-08-31T01:06:03;12.70;99.90
44509;DHT22;30214;52.246;14.408;2023-08-31T01:08:40;12.70;99.90
44509;DHT22;30214;52.246;14.408;2023-08-31T01:11:19;12.70;99.90
44509;DHT22;30214;52.246;14.408;2023-08-31T01:13:53;12.70;99.90
44509;DHT22;30214;52.246;14.408;2023-08-31T01:16:25;12.60;99.90
44509;DHT22;30214;52.246;14.408;2023-08-31T01:18:54;12.60;99.90
44509;DHT22;30214;52.246;14.408;2023-08-31T01:21:27;12.40;99.90
44509;DHT22;30214;52.246;14.408;2023-08-31T01:23:56;12.40;99.90
44509;DHT22;30214;52.246;14.408;2023-08-31T01:26:25;12.40;99.90
44509;DHT22;30214;52.246;14.408;2023-08-31T01:28:52;12.40;99.90
44509;DHT22;30214;52.246;14.408;2023-08-31T01:31:21;12.40;99.90
44509;DHT22;30214;52.246;14.408;2023-08-31T01:33:48;12.40;99.90
44509;DHT22;30214;52.246;14.408;2023-08-31T01:36:22;12.30;99.90
44509;DHT22;30214;52.246;14.408;2023-08-31T01:38:57;12.30;99.90
44509;DHT22;30214;52.246;14.408;2023-08-31T01:41:26;12.30;99.90
44509;DHT22;30214;52.246;14.408;2023-08-31T01:43:56;12.40;99.90
44509;DHT22;30214;52.246;14.408;2023-08-31T01:46:24;12.50;99.90
44509;DHT22;30214;52.246;14.408;2023-08-31T01:48:52;12.50;99.90
44509;DHT22;30214;52.246;14.408;2023-08-31T01:51:19;12.60;99.90
44509;DHT22;30214;52.246;14.408;2023-08-31T01:53:46;12.60;99.90
44509;DHT22;30214;52.246;14.408;2023-08-31T01:56:15;12.60;99.90
44509;DHT22;30214;52.246;14.408;2023-08-31T01:58:42;12.50;99.90
44509;DHT22;30214;52.246;14.408;2023-08-31T02:01:11;12.60;99.90
44509;DHT22;30214;52.246;14.408;2023-08-31T02:03:39;12.60;99.90
44509;DHT22;30214;52.246;14.408;2023-08-31T02:06:06;12.70;99.90
44509;DHT22;30214;52.246;14.408;2023-08-31T02:08:33;12.70;99.90
44509;DHT22;30214;52.246;14.408;2023-08-31T02:11:00;12.60;99.90
44509;DHT22;30214;52.246;14.408;2023-08-31T02:13:30;12.70;99.90
44509;DHT22;30214;52.246;14.408;2023-08-31T02:15:57;12.70;99.90
44509;DHT22;30214;52.246;14.408;2023-08-31T02:18:26;12.70;99.90
44509;DHT22;30214;52.246;14.408;2023-08-31T02:20:54;12.80;99.90
44509;DHT22;30214;52.246;14.408;2023-08-31T02:23:23;12.90;99.90
44509;DHT22;30214;52.246;14.408;2023-08-31T02:25:50;13.00;99.90
44509;DHT22;30214;52.246;14.408;2023-08-31T02:28:20;13.00;99.90
44509;DHT22;30214;52.246;14.408;2023-08-31T02:30:57;13.00;99.90
44509;DHT22;30214;52.246;14.408;2023-08-31T02:33:24;13.00;99.90
44509;DHT22;30214;52.246;14.408;2023-08-31T02:35:52;13.00;99.90
44509;DHT22;30214;52.246;14.408;2023-08-31T02:38:19;13.10;99.90
44509;DHT22;30214;52.246;14.408;2023-08-31T02:40:47;13.10;99.90
44509;DHT22;30214;52.246;14.408;2023-08-31T02:43:14;13.10;99.90
44509;DHT22;30214;52.246;14.408;2023-08-31T02:45:41;13.20;99.90
44509;DHT22;30214;52.246;14.408;2023-08-31T02:48:10;13.20;99.90
44509;DHT22;30214;52.246;14.408;2023-08-31T02:50:38;13.20;99.90
44509;DHT22;30214;52.246;14.408;2023-08-31T02:53:05;13.20;99.90
44509;DHT22;30214;52.246;14.408;2023-08-31T02:55:33;13.20;99.90
44509;DHT22;30214;52.246;14.408;2023-08-31T02:58:03;13.20;99.90
44509;DHT22;30214;52.246;14.408;2023-08-31T03:00:31;13.20;99.90
44509;DHT22;30214;52.246;14.408;2023-08-31T03:02:59;13.20;99.90
44509;DHT22;30214;52.246;14.408;2023-08-31T03:05:29;13.20;99.90
44509;DHT22;30214;52.246;14.408;2023-08-31T03:07:59;13.20;99.90
44509;DHT22;30214;52.246;14.408;2023-08-31T03:10:27;13.20;99.90
44509;DHT22;30214;52.246;14.408;2023-08-31T03:12:54;13.20;99.90
44509;DHT22;30214;52.246;14.408;2023-08-31T03:15:21;13.20;99.90
44509;DHT22;30214;52.246;14.408;2023-08-31T03:17:49;13.20;99.90
44509;DHT22;30214;52.246;14.408;2023-08-31T03:20:17;13.20;99.90
44509;DHT22;30214;52.246;14.408;2023-08-31T03:22:46;13.30;99.90
44509;DHT22;30214;52.246;14.408;2023-08-31T03:25:14;13.30;99.90
44509;DHT22;30214;52.246;14.408;2023-08-31T03:27:41;13.30;99.90
44509;DHT22;30214;52.246;14.408;2023-08-31T03:30:09;13.30;99.90
44509;DHT22;30214;52.246;14.408;2023-08-31T03:32:36;13.30;99.90
44509;DHT22;30214;52.246;14.408;2023-08-31T03:35:05;13.40;99.90
44509;DHT22;30214;52.246;14.408;2023-08-31T03:37:33;13.40;99.90
44509;DHT22;30214;52.246;14.408;2023-08-31T03:40:01;13.40;99.90
44509;DHT22;30214;52.246;14.408;2023-08-31T03:42:30;13.40;99.90
44509;DHT22;30214;52.246;14.408;2023-08-31T03:44:57;13.40;99.90
44509;DHT22;30214;52.246;14.408;2023-08-31T03:47:24;13.40;99.90
44509;DHT22;30214;52.246;14.408;2023-08-31T03:49:52;13.40;99.90
44509;DHT22;30214;52.246;14.408;2023-08-31T03:52:19;13.50;99.90
44509;DHT22;30214;52.246;14.408;2023-08-31T03:54:47;13.50;99.90
44509;DHT22;30214;52.246;14.408;2023-08-31T03:57:16;13.50;99.90
44509;DHT22;30214;52.246;14.408;2023-08-31T03:59:43;13.40;99.90
44509;DHT22;30214;52.246;14.408;2023-08-31T04:02:10;13.40;99.90
44509;DHT22;30214;52.246;14.408;2023-08-31T04:04:37;13.40;99.90
44509;DHT22;30214;52.246;14.408;2023-08-31T04:07:06;13.40;99.90
44509;DHT22;30214;52.246;14.408;2023-08-31T04:09:33;13.40;99.90
44509;DHT22;30214;52.246;14.408;2023-08-31T04:12:00;13.40;99.90
44509;DHT22;30214;52.246;14.408;2023-08-31T04:14:31;13.40;99.90
44509;DHT22;30214;52.246;14.408;2023-08-31T04:16:58;13.40;99.90
44509;DHT22;30214;52.246;14.408;2023-08-31T04:19:25;13.40;99.90
44509;DHT22;30214;52.246;14.408;2023-08-31T04:21:52;13.30;99.90
44509;DHT22;30214;52.246;14.408;2023-08-31T04:24:20;13.40;99.90
44509;DHT22;30214;52.246;14.408;2023-08-31T04:26:46;13.30;99.90
44509;DHT22;30214;52.246;14.408;2023-08-31T04:29:16;13.30;99.90
44509;DHT22;30214;52.246;14.408;2023-08-31T04:31:45;13.30;99.90
44509;DHT22;30214;52.246;14.408;2023-08-31T04:34:12;13.30;99.90
44509;DHT22;30214;52.246;14.408;2023-08-31T04:36:39;13.30;99.90
44509;DHT22;30214;52.246;14.408;2023-08-31T04:39:06;13.30;99.90
44509;DHT22;30214;52.246;14.408;2023-08-31T04:41:33;13.30;99.90
44509;DHT22;30214;52.246;14.408;2023-08-31T04:44:00;13.30;99.90
44509;DHT22;30214;52.246;14.408;2023-08-31T04:46:28;13.40;99.90
44509;DHT22;30214;52.246;14.408;2023-08-31T04:48:56;13.50;99.90
44509;DHT22;30214;52.246;14.408;2023-08-31T04:51:28;13.40;99.90
44509;DHT22;30214;52.246;14.408;2023-08-31T04:53:56;13.40;99.90
44509;DHT22;30214;52.246;14.408;2023-08-31T04:56:23;13.40;99.90
44509;DHT22;30214;52.246;14.408;2023-08-31T04:58:50;13.50;99.90
44509;DHT22;30214;52.246;14.408;2023-08-31T05:01:17;13.50;99.90
44509;DHT22;30214;52.246;14.408;2023-08-31T05:03:44;13.50;99.90
44509;DHT22;30214;52.246;14.408;2023-08-31T05:06:13;13.60;99.90
44509;DHT22;30214;52.246;14.408;2023-08-31T05:08:40;13.60;99.90
44509;DHT22;30214;52.246;14.408;2023-08-31T05:11:07;13.60;99.90
44509;DHT22;30214;52.246;14.408;2023-08-31T05:13:34;13.70;99.90
44509;DHT22;30214;52.246;14.408;2023-08-31T05:16:01;13.70;99.90
44509;DHT22;30214;52.246;14.408;2023-08-31T05:18:29;13.70;99.90
44509;DHT22;30214;52.246;14.408;2023-08-31T05:20:56;13.70;99.90
44509;DHT22;30214;52.246;14.408;2023-08-31T05:23:24;13.60;99.90
44509;DHT22;30214;52.246;14.408;2023-08-31T05:25:51;13.60;99.90
44509;DHT22;30214;52.246;14.408;2023-08-31T05:28:18;13.60;99.90
44509;DHT22;30214;52.246;14.408;2023-08-31T05:30:49;13.60;99.90
44509;DHT22;30214;52.246;14.408;2023-08-31T05:33:16;13.60;99.90
44509;DHT22;30214;52.246;14.408;2023-08-31T05:35:43;13.60;99.90
44509;DHT22;30214;52.246;14.408;2023-08-31T05:38:11;13.80;99.90
44509;DHT22;30214;52.246;14.408;2023-08-31T05:40:39;13.80;99.90
44509;DHT22;30214;52.246;14.408;2023-08-31T05:43:11;13.80;99.90
44509;DHT22;30214;52.246;14.408;2023-08-31T05:45:38;13.80;99.90
44509;DHT22;30214;52.246;14.408;2023-08-31T05:48:05;13.90;99.90
44509;DHT22;30214;52.246;14.408;2023-08-31T05:50:32;13.90;99.90
44509;DHT22;30214;52.246;14.408;2023-08-31T05:52:59;14.00;99.90
44509;DHT22;30214;52.246;14.408;2023-08-31T05:55:26;13.90;99.90
44509;DHT22;30214;52.246;14.408;2023-08-31T05:57:55;13.90;99.90
44509;DHT22;30214;52.246;14.408;2023-08-31T06:00:22;14.10;99.90
44509;DHT22;30214;52.246;14.408;2023-08-31T06:02:48;14.00;99.90
44509;DHT22;30214;52.246;14.408;2023-08-31T06:05:15;14.00;99.90
44509;DHT22;30214;52.246;14.408;2023-08-31T06:07:43;14.10;99.90
44509;DHT22;30214;52.246;14.408;2023-08-31T06:10:10;14.00;99.90
44509;DHT22;30214;52.246;14.408;2023-08-31T06:12:37;14.10;99.90
44509;DHT22;30214;52.246;14.408;2023-08-31T06:15:06;14.20;99.90
44509;DHT22;30214;52.246;14.408;2023-08-31T06:17:33;14.20;99.90
44509;DHT22;30214;52.246;14.408;2023-08-31T06:20:04;14.20;99.90
44509;DHT22;30214;52.246;14.408;2023-08-31T06:22:32;14.20;99.90
44509;DHT22;30214;52.246;14.408;2023-08-31T06:24:59;14.30;99.90
44509;DHT22;30214;52.246;14.408;2023-08-31T06:27:26;14.30;99.90
44509;DHT22;30214;52.246;14.408;2023-08-31T06:29:53;14.40;99.90
44509;DHT22;30214;52.246;14.408;2023-08-31T06:32:21;14.40;99.90
44509;DHT22;30214;52.246;14.408;2023-08-31T06:34:48;14.50;99.90
44509;DHT22;30214;52.246;14.408;2023-08-31T06:37:15;14.50;99.90
44509;DHT22;30214;52.246;14.408;2023-08-31T06:39:42;14.40;99.90
44509;DHT22;30214;52.246;14.408;2023-08-31T06:42:09;14.40;99.90
44509;DHT22;30214;52.246;14.408;2023-08-31T06:44:38;14.40;99.90
44509;DHT22;30214;52.246;14.408;2023-08-31T06:47:05;14.40;99.90
44509;DHT22;30214;52.246;14.408;2023-08-31T06:49:33;14.40;99.90
44509;DHT22;30214;52.246;14.408;2023-08-31T06:52:00;14.50;99.90
44509;DHT22;30214;52.246;14.408;2023-08-31T06:54:28;14.60;99.90
44509;DHT22;30214;52.246;14.408;2023-08-31T06:56:55;14.60;99.90
44509;DHT22;30214;52.246;14.408;2023-08-31T06:59:22;14.70;99.90
44509;DHT22;30214;52.246;14.408;2023-08-31T07:01:50;14.70;99.90
44509;DHT22;30214;52.246;14.408;2023-08-31T07:04:17;14.80;99.90
44509;DHT22;30214;52.246;14.408;2023-08-31T07:06:45;14.80;99.90
44509;DHT22;30214;52.246;14.408;2023-08-31T07:09:12;14.80;99.90
44509;DHT22;30214;52.246;14.408;2023-08-31T07:11:39;14.80;99.90
44509;DHT22;30214;52.246;14.408;2023-08-31T07:14:06;14.70;99.90
44509;DHT22;30214;52.246;14.408;2023-08-31T07:16:33;14.70;99.90
44509;DHT22;30214;52.246;14.408;2023-08-31T07:19:00;14.70;99.90
44509;DHT22;30214;52.246;14.408;2023-08-31T07:21:26;14.80;99.90
44509;DHT22;30214;52.246;14.408;2023-08-31T07:23:55;14.80;99.90
44509;DHT22;30214;52.246;14.408;2023-08-31T07:26:22;15.00;99.90
44509;DHT22;30214;52.246;14.408;2023-08-31T07:28:49;15.00;99.90
44509;DHT22;30214;52.246;14.408;2023-08-31T07:31:16;15.10;99.90
44509;DHT22;30214;52.246;14.408;2023-08-31T07:33:43;15.20;99.90
44509;DHT22;30214;52.246;14.408;2023-08-31T07:36:10;15.30;99.90
44509;DHT22;30214;52.246;14.408;2023-08-31T07:38:37;15.40;99.90
44509;DHT22;30214;52.246;14.408;2023-08-31T07:41:05;15.50;99.90
44509;DHT22;30214;52.246;14.408;2023-08-31T07:43:34;15.60;99.90
44509;DHT22;30214;52.246;14.408;2023-08-31T07:46:01;15.70;99.90
44509;DHT22;30214;52.246;14.408;2023-08-31T07:48:29;15.80;99.90
44509;DHT22;30214;52.246;14.408;2023-08-31T07:50:56;15.90;99.90
44509;DHT22;30214;52.246;14.408;2023-08-31T07:53:23;15.90;99.90
44509;DHT22;30214;52.246;14.408;2023-08-31T07:55:53;15.90;99.90
44509;DHT22;30214;52.246;14.408;2023-08-31T07:58:23;15.90;99.90
44509;DHT22;30214;52.246;14.408;2023-08-31T08:00:52;15.90;99.90
44509;DHT22;30214;52.246;14.408;2023-08-31T08:03:19;15.80;99.90
44509;DHT22;30214;52.246;14.408;2023-08-31T08:05:46;15.60;99.90
44509;DHT22;30214;52.246;14.408;2023-08-31T08:08:13;15.50;99.90
44509;DHT22;30214;52.246;14.408;2023-08-31T08:10:40;15.60;99.90
44509;DHT22;30214;52.246;14.408;2023-08-31T08:13:11;15.60;99.90
44509;DHT22;30214;52.246;14.408;2023-08-31T08:15:39;15.70;99.90
44509;DHT22;30214;52.246;14.408;2023-08-31T08:18:06;15.70;99.90
44509;DHT22;30214;52.246;14.408;2023-08-31T08:20:33;15.60;99.90
44509;DHT22;30214;52.246;14.408;2023-08-31T08:23:00;15.40;99.90
44509;DHT22;30214;52.246;14.408;2023-08-31T08:25:27;15.40;99.90
44509;DHT22;30214;52.246;14.408;2023-08-31T08:27:54;15.30;99.90
44509;DHT22;30214;52.246;14.408;2023-08-31T08:30:21;15.30;99.90
44509;DHT22;30214;52.246;14.408;2023-08-31T08:32:49;15.30;99.90
44509;DHT22;30214;52.246;14.408;2023-08-31T08:35:16;15.30;99.90
44509;DHT22;30214;52.246;14.408;2023-08-31T08:37:43;15.20;99.90
44509;DHT22;30214;52.246;14.408;2023-08-31T08:40:10;15.30;99.90
44509;DHT22;30214;52.246;14.408;2023-08-31T08:42:40;15.30;99.90
44509;DHT22;30214;52.246;14.408;2023-08-31T08:45:10;15.40;99.90
44509;DHT22;30214;52.246;14.408;2023-08-31T08:47:42;15.40;99.90
44509;DHT22;30214;52.246;14.408;2023-08-31T08:50:10;15.40;99.90
44509;DHT22;30214;52.246;14.408;2023-08-31T08:52:38;15.40;99.90
44509;DHT22;30214;52.246;14.408;2023-08-31T08:55:06;15.40;99.90
44509;DHT22;30214;52.246;14.408;2023-08-31T08:57:34;15.60;99.90
44509;DHT22;30214;52.246;14.408;2023-08-31T09:00:01;15.70;99.90
44509;DHT22;30214;52.246;14.408;2023-08-31T09:02:29;15.90;99.90
44509;DHT22;30214;52.246;14.408;2023-08-31T09:04:56;15.90;99.90
44509;DHT22;30214;52.246;14.408;2023-08-31T09:07:24;16.00;99.90
44509;DHT22;30214;52.246;14.408;2023-08-31T09:09:53;16.00;99.90
44509;DHT22;30214;52.246;14.408;2023-08-31T09:12:22;16.20;99.90
44509;DHT22;30214;52.246;14.408;2023-08-31T09:15:00;16.30;99.90
44509;DHT22;30214;52.246;14.408;2023-08-31T09:17:37;16.40;99.90
44509;DHT22;30214;52.246;14.408;2023-08-31T09:20:06;16.60;99.90
44509;DHT22;30214;52.246;14.408;2023-08-31T09:22:34;16.50;99.90
44509;DHT22;30214;52.246;14.408;2023-08-31T09:25:01;16.60;99.90
44509;DHT22;30214;52.246;14.408;2023-08-31T09:27:28;16.80;99.90
44509;DHT22;30214;52.246;14.408;2023-08-31T09:29:57;16.90;99.90
44509;DHT22;30214;52.246;14.408;2023-08-31T09:32:24;17.00;99.90
44509;DHT22;30214;52.246;14.408;2023-08-31T09:34:51;16.90;99.90
44509;DHT22;30214;52.246;14.408;2023-08-31T09:37:18;17.00;99.90
44509;DHT22;30214;52.246;14.408;2023-08-31T09:39:46;17.10;99.90
44509;DHT22;30214;52.246;14.408;2023-08-31T09:42:13;17.50;99.90
44509;DHT22;30214;52.246;14.408;2023-08-31T09:44:42;17.80;99.90
44509;DHT22;30214;52.246;14.408;2023-08-31T09:47:10;18.00;99.90
44509;DHT22;30214;52.246;14.408;2023-08-31T09:49:37;17.90;99.90
44509;DHT22;30214;52.246;14.408;2023-08-31T09:52:05;17.90;99.90
44509;DHT22;30214;52.246;14.408;2023-08-31T09:54:35;17.70;99.90
44509;DHT22;30214;52.246;14.408;2023-08-31T09:57:05;17.80;99.90
44509;DHT22;30214;52.246;14.408;2023-08-31T09:59:32;18.20;99.90
44509;DHT22;30214;52.246;14.408;2023-08-31T10:02:01;18.50;99.90
44509;DHT22;30214;52.246;14.408;2023-08-31T10:04:30;18.40;99.90
44509;DHT22;30214;52.246;14.408;2023-08-31T10:06:59;18.30;99.90
44509;DHT22;30214;52.246;14.408;2023-08-31T10:09:26;18.30;99.90
44509;DHT22;30214;52.246;14.408;2023-08-31T10:11:54;18.40;99.90
44509;DHT22;30214;52.246;14.408;2023-08-31T10:14:23;18.40;99.90
44509;DHT22;30214;52.246;14.408;2023-08-31T10:16:50;18.60;99.90
44509;DHT22;30214;52.246;14.408;2023-08-31T10:19:19;18.70;99.90
44509;DHT22;30214;52.246;14.408;2023-08-31T10:21:46;19.10;99.90
44509;DHT22;30214;52.246;14.408;2023-08-31T10:24:13;19.10;99.90
44509;DHT22;30214;52.246;14.408;2023-08-31T10:26:40;19.00;99.90
44509;DHT22;30214;52.246;14.408;2023-08-31T10:29:27;18.90;99.90
44509;DHT22;30214;52.246;14.408;2023-08-31T10:31:54;18.70;99.90
44509;DHT22;30214;52.246;14.408;2023-08-31T10:34:34;18.60;99.90
44509;DHT22;30214;52.246;14.408;2023-08-31T10:37:03;18.40;99.90
44509;DHT22;30214;52.246;14.408;2023-08-31T10:39:45;18.50;99.90
44509;DHT22;30214;52.246;14.408;2023-08-31T10:42:12;18.40;99.90
44509;DHT22;30214;52.246;14.408;2023-08-31T10:44:41;18.20;99.90
44509;DHT22;30214;52.246;14.408;2023-08-31T10:47:09;18.00;99.90
44509;DHT22;30214;52.246;14.408;2023-08-31T10:49:36;17.80;99.90
44509;DHT22;30214;52.246;14.408;2023-08-31T10:52:16;17.50;99.90
44509;DHT22;30214;52.246;14.408;2023-08-31T10:54:43;17.40;99.90
44509;DHT22;30214;52.246;14.408;2023-08-31T10:57:13;17.30;99.90
44509;DHT22;30214;52.246;14.408;2023-08-31T10:59:47;17.30;99.90
44509;DHT22;30214;52.246;14.408;2023-08-31T11:02:30;17.30;99.90
44509;DHT22;30214;52.246;14.408;2023-08-31T11:04:59;17.20;99.90
44509;DHT22;30214;52.246;14.408;2023-08-31T11:07:29;17.20;99.90
44509;DHT22;30214;52.246;14.408;2023-08-31T11:10:16;17.40;99.90
44509;DHT22;30214;52.246;14.408;2023-08-31T11:12:45;17.60;99.90
44509;DHT22;30214;52.246;14.408;2023-08-31T11:15:14;17.80;99.90
44509;DHT22;30214;52.246;14.408;2023-08-31T11:17:41;18.00;99.90
44509;DHT22;30214;52.246;14.408;2023-08-31T11:20:12;18.40;99.90
44509;DHT22;30214;52.246;14.408;2023-08-31T11:29:43;19.40;99.90
44509;DHT22;30214;52.246;14.408;2023-08-31T11:32:12;19.20;99.90
44509;DHT22;30214;52.246;14.408;2023-08-31T11:34:41;18.90;99.90
44509;DHT22;30214;52.246;14.408;2023-08-31T11:37:09;18.70;99.90
44509;DHT22;30214;52.246;14.408;2023-08-31T11:39:37;18.70;99.90
44509;DHT22;30214;52.246;14.408;2023-08-31T11:42:05;18.80;99.90
44509;DHT22;30214;52.246;14.408;2023-08-31T11:44:32;18.70;99.90
44509;DHT22;30214;52.246;14.408;2023-08-31T11:46:59;18.60;99.90
44509;DHT22;30214;52.246;14.408;2023-08-31T11:49:28;18.70;99.90
44509;DHT22;30214;52.246;14.408;2023-08-31T11:51:55;19.00;99.90
44509;DHT22;30214;52.246;14.408;2023-08-31T11:54:25;19.20;98.70
44509;DHT22;30214;52.246;14.408;2023-08-31T11:56:52;19.20;98.10
44509;DHT22;30214;52.246;14.408;2023-08-31T11:59:19;19.00;98.10
44509;DHT22;30214;52.246;14.408;2023-08-31T12:01:47;18.70;99.00
44509;DHT22;30214;52.246;14.408;2023-08-31T12:04:17;18.40;99.90
44509;DHT22;30214;52.246;14.408;2023-08-31T12:06:48;18.10;99.90
44509;DHT22;30214;52.246;14.408;2023-08-31T12:09:16;17.70;99.90
44509;DHT22;30214;52.246;14.408;2023-08-31T12:11:49;17.50;99.90
44509;DHT22;30214;52.246;14.408;2023-08-31T12:14:21;17.50;99.90
44509;DHT22;30214;52.246;14.408;2023-08-31T12:16:48;17.30;99.90
44509;DHT22;30214;52.246;14.408;2023-08-31T12:19:16;17.30;99.90
44509;DHT22;30214;52.246;14.408;2023-08-31T12:21:44;17.30;99.90
44509;DHT22;30214;52.246;14.408;2023-08-31T12:24:13;17.50;99.90
44509;DHT22;30214;52.246;14.408;2023-08-31T12:26:42;17.80;99.90
44509;DHT22;30214;52.246;14.408;2023-08-31T12:29:09;18.00;99.90
44509;DHT22;30214;52.246;14.408;2023-08-31T12:31:36;18.20;99.90
44509;DHT22;30214;52.246;14.408;2023-08-31T12:34:03;18.60;99.90
44509;DHT22;30214;52.246;14.408;2023-08-31T12:36:32;18.80;99.80
44509;DHT22;30214;52.246;14.408;2023-08-31T12:38:59;18.90;99.90
44509;DHT22;30214;52.246;14.408;2023-08-31T12:41:29;18.90;99.50
44509;DHT22;30214;52.246;14.408;2023-08-31T12:43:56;19.00;98.20
44509;DHT22;30214;52.246;14.408;2023-08-31T12:46:23;19.00;97.50
44509;DHT22;30214;52.246;14.408;2023-08-31T12:48:50;19.00;98.50
44509;DHT22;30214;52.246;14.408;2023-08-31T12:51:18;19.00;97.00
44509;DHT22;30214;52.246;14.408;2023-08-31T12:53:45;19.00;98.10
44509;DHT22;30214;52.246;14.408;2023-08-31T12:56:12;19.10;97.40
44509;DHT22;30214;52.246;14.408;2023-08-31T12:58:40;18.90;97.70
44509;DHT22;30214;52.246;14.408;2023-08-31T13:01:07;19.00;97.60
44509;DHT22;30214;52.246;14.408;2023-08-31T13:03:34;19.00;97.60
44509;DHT22;30214;52.246;14.408;2023-08-31T13:06:02;19.10;99.90
44509;DHT22;30214;52.246;14.408;2023-08-31T13:08:29;19.20;98.60
44509;DHT22;30214;52.246;14.408;2023-08-31T13:10:56;18.90;97.70
44509;DHT22;30214;52.246;14.408;2023-08-31T13:13:23;18.70;98.60
44509;DHT22;30214;52.246;14.408;2023-08-31T13:15:51;18.70;99.90
44509;DHT22;30214;52.246;14.408;2023-08-31T13:18:18;18.60;99.00
44509;DHT22;30214;52.246;14.408;2023-08-31T13:20:51;18.40;99.80
44509;DHT22;30214;52.246;14.408;2023-08-31T13:23:18;18.40;99.90
44509;DHT22;30214;52.246;14.408;2023-08-31T13:25:45;18.40;99.90
44509;DHT22;30214;52.246;14.408;2023-08-31T13:28:11;18.40;99.90
44509;DHT22;30214;52.246;14.408;2023-08-31T13:30:39;18.50;99.90
44509;DHT22;30214;52.246;14.408;2023-08-31T13:33:07;18.50;99.90
44509;DHT22;30214;52.246;14.408;2023-08-31T13:35:34;18.50;99.90
44509;DHT22;30214;52.246;14.408;2023-08-31T13:38:01;18.50;99.90
44509;DHT22;30214;52.246;14.408;2023-08-31T13:40:28;18.60;99.90
44509;DHT22;30214;52.246;14.408;2023-08-31T13:42:56;18.60;99.90
44509;DHT22;30214;52.246;14.408;2023-08-31T13:45:27;18.60;99.90
44509;DHT22;30214;52.246;14.408;2023-08-31T13:47:54;18.50;99.90
44509;DHT22;30214;52.246;14.408;2023-08-31T13:50:22;18.50;99.90
44509;DHT22;30214;52.246;14.408;2023-08-31T13:52:49;18.40;99.90
44509;DHT22;30214;52.246;14.408;2023-08-31T13:55:16;18.40;99.90
44509;DHT22;30214;52.246;14.408;2023-08-31T13:57:43;18.50;99.90
44509;DHT22;30214;52.246;14.408;2023-08-31T14:00:11;18.60;99.90
44509;DHT22;30214;52.246;14.408;2023-08-31T14:02:39;18.70;99.90
44509;DHT22;30214;52.246;14.408;2023-08-31T14:05:06;18.60;99.70
44509;DHT22;30214;52.246;14.408;2023-08-31T14:07:36;18.50;99.90
44509;DHT22;30214;52.246;14.408;2023-08-31T14:10:07;18.40;99.70
44509;DHT22;30214;52.246;14.408;2023-08-31T14:12:34;18.30;99.90
44509;DHT22;30214;52.246;14.408;2023-08-31T14:15:02;18.20;99.90
44509;DHT22;30214;52.246;14.408;2023-08-31T14:17:30;18.10;99.90
44509;DHT22;30214;52.246;14.408;2023-08-31T14:19:59;18.00;99.90
44509;DHT22;30214;52.246;14.408;2023-08-31T14:22:26;18.00;99.90
44509;DHT22;30214;52.246;14.408;2023-08-31T14:24:55;18.00;99.90
44509;DHT22;30214;52.246;14.408;2023-08-31T14:27:22;18.10;99.90
44509;DHT22;30214;52.246;14.408;2023-08-31T14:29:49;18.10;99.90
44509;DHT22;30214;52.246;14.408;2023-08-31T14:32:16;18.10;99.90
44509;DHT22;30214;52.246;14.408;2023-08-31T14:34:43;18.20;99.90
44509;DHT22;30214;52.246;14.408;2023-08-31T14:37:10;18.30;99.90
44509;DHT22;30214;52.246;14.408;2023-08-31T14:39:37;18.40;99.10
44509;DHT22;30214;52.246;14.408;2023-08-31T14:42:05;18.50;97.90
44509;DHT22;30214;52.246;14.408;2023-08-31T14:44:32;18.50;98.60
44509;DHT22;30214;52.246;14.408;2023-08-31T14:46:59;18.30;97.50
44509;DHT22;30214;52.246;14.408;2023-08-31T14:49:26;18.00;98.50
44509;DHT22;30214;52.246;14.408;2023-08-31T14:51:54;17.60;99.30
44509;DHT22;30214;52.246;14.408;2023-08-31T14:54:21;17.50;99.70
44509;DHT22;30214;52.246;14.408;2023-08-31T14:56:49;17.50;99.90
44509;DHT22;30214;52.246;14.408;2023-08-31T14:59:18;17.30;99.90
44509;DHT22;30214;52.246;14.408;2023-08-31T15:01:44;17.20;99.90
44509;DHT22;30214;52.246;14.408;2023-08-31T15:04:12;17.10;99.90
44509;DHT22;30214;52.246;14.408;2023-08-31T15:06:39;17.00;99.90
44509;DHT22;30214;52.246;14.408;2023-08-31T15:09:06;17.00;99.90
44509;DHT22;30214;52.246;14.408;2023-08-31T15:11:35;17.00;99.90
44509;DHT22;30214;52.246;14.408;2023-08-31T15:14:04;16.90;99.90
44509;DHT22;30214;52.246;14.408;2023-08-31T15:16:33;16.80;99.90
44509;DHT22;30214;52.246;14.408;2023-08-31T15:19:01;16.80;99.90
44509;DHT22;30214;52.246;14.408;2023-08-31T15:21:28;16.90;99.90
44509;DHT22;30214;52.246;14.408;2023-08-31T15:23:55;16.90;99.90
44509;DHT22;30214;52.246;14.408;2023-08-31T15:26:22;16.80;99.90
44509;DHT22;30214;52.246;14.408;2023-08-31T15:28:50;16.60;99.90